createdAt,value
2018-04-11T00:00:59.281Z,25.20
2018-04-11T00:01:59.278Z,26.10
2018-04-11T00:02:59.287Z,25.10
2018-04-11T00:03:59.295Z,24.60
2018-04-11T00:04:59.298Z,26.30
2018-04-11T00:05:59.301Z,26.50
2018-04-11T00:06:59.313Z,25.90
2018-04-11T00:07:59.325Z,26.30
2018-04-11T00:08:59.372Z,25.50
2018-04-11T00:09:59.310Z,26.30
2018-04-11T00:10:59.333Z,26.90
2018-04-11T00:11:59.322Z,25.40
2018-04-11T00:12:59.332Z,26.80
2018-04-11T00:13:59.331Z,27.00
2018-04-11T00:14:59.329Z,25.80
2018-04-11T00:15:59.330Z,25.20
2018-04-11T00:16:59.333Z,26.30
2018-04-11T00:17:59.347Z,26.50
2018-04-11T00:18:59.356Z,26.60
2018-04-11T00:19:59.355Z,27.90
2018-04-11T00:20:59.353Z,27.80
2018-04-11T00:21:59.344Z,27.30
2018-04-11T00:22:59.361Z,26.90
2018-04-11T00:23:59.374Z,26.60
2018-04-11T00:24:59.360Z,29.30
2018-04-11T00:25:59.368Z,31.20
2018-04-11T00:26:59.399Z,30.00
2018-04-11T00:27:59.378Z,32.50
2018-04-11T00:28:59.385Z,36.50
2018-04-11T00:29:59.384Z,36.20
2018-04-11T00:30:59.388Z,37.80
2018-04-11T00:31:59.456Z,38.10
2018-04-11T00:32:59.385Z,40.90
2018-04-11T00:33:59.392Z,38.90
2018-04-11T00:34:59.391Z,38.30
2018-04-11T00:35:59.397Z,38.80
2018-04-11T00:36:59.398Z,40.10
2018-04-11T00:37:59.403Z,38.70
2018-04-11T00:38:59.398Z,42.30
2018-04-11T00:39:59.406Z,40.50
2018-04-11T00:40:59.403Z,39.40
2018-04-11T00:41:59.411Z,42.70
2018-04-11T00:42:59.428Z,39.80
2018-04-11T00:43:59.432Z,41.70
2018-04-11T00:44:59.435Z,40.60
2018-04-11T00:45:59.426Z,41.00
2018-04-11T00:46:59.428Z,42.10
2018-04-11T00:47:59.441Z,43.20
2018-04-11T00:49:00.397Z,42.40
2018-04-11T00:49:59.451Z,40.30
2018-04-11T00:50:59.466Z,40.60
2018-04-11T00:51:59.453Z,40.60
2018-04-11T00:52:59.526Z,40.10
2018-04-11T00:53:59.483Z,42.30
2018-04-11T00:54:59.467Z,41.00
2018-04-11T00:55:59.465Z,42.60
2018-04-11T00:56:59.465Z,42.10
2018-04-11T00:57:59.467Z,43.20
2018-04-11T00:58:59.473Z,44.30
2018-04-11T00:59:59.469Z,43.70
2018-04-11T01:00:59.482Z,44.90
2018-04-11T01:01:59.490Z,44.00
2018-04-11T01:02:59.487Z,44.60
2018-04-11T01:03:59.496Z,44.70
2018-04-11T01:04:59.483Z,44.50
2018-04-11T01:05:59.494Z,43.70
2018-04-11T01:06:59.498Z,42.80
2018-04-11T01:07:59.510Z,44.00
2018-04-11T01:08:59.508Z,43.00
2018-04-11T01:09:59.501Z,45.60
2018-04-11T01:10:59.513Z,45.80
2018-04-11T01:11:59.535Z,44.60
2018-04-11T01:12:59.553Z,45.00
2018-04-11T01:13:59.536Z,45.30
2018-04-11T01:14:59.523Z,44.70
2018-04-11T01:15:59.535Z,46.00
2018-04-11T01:16:59.529Z,44.30
2018-04-11T01:17:59.532Z,46.70
2018-04-11T01:18:59.537Z,44.50
2018-04-11T01:19:59.558Z,46.60
2018-04-11T01:20:59.543Z,45.90
2018-04-11T01:21:59.547Z,45.30
2018-04-11T01:22:59.555Z,46.30
2018-04-11T01:23:59.543Z,44.30
2018-04-11T01:24:59.569Z,45.50
2018-04-11T01:25:59.571Z,44.80
2018-04-11T01:26:59.564Z,44.70
2018-04-11T01:27:59.555Z,44.90
2018-04-11T01:28:59.575Z,45.30
2018-04-11T01:29:59.569Z,44.30
2018-04-11T01:30:59.567Z,45.50
2018-04-11T01:31:59.577Z,46.80
2018-04-11T01:32:59.581Z,45.30
2018-04-11T01:33:59.591Z,45.30
2018-04-11T01:34:59.587Z,42.90
2018-04-11T01:35:59.595Z,44.10
2018-04-11T01:36:59.590Z,45.50
2018-04-11T01:37:59.598Z,43.70
2018-04-11T01:38:59.610Z,44.10
2018-04-11T01:39:59.600Z,45.80
2018-04-11T01:40:59.596Z,44.30
2018-04-11T01:41:59.625Z,41.80
2018-04-11T01:42:59.673Z,45.30
2018-04-11T01:43:59.605Z,44.80
2018-04-11T01:44:59.653Z,43.90
2018-04-11T01:45:59.623Z,45.90
2018-04-11T01:46:59.630Z,44.50
2018-04-11T01:47:59.630Z,44.40
2018-04-11T01:48:59.631Z,43.70
2018-04-11T01:49:59.629Z,43.40
2018-04-11T01:50:59.638Z,44.20
2018-04-11T01:51:59.635Z,44.90
2018-04-11T01:52:59.641Z,43.60
2018-04-11T01:53:59.648Z,43.50
2018-04-11T01:54:59.635Z,45.20
2018-04-11T01:55:59.661Z,43.50
2018-04-11T01:56:59.651Z,45.10
2018-04-11T01:57:59.666Z,45.70
2018-04-11T01:58:59.670Z,44.30
2018-04-11T01:59:59.664Z,43.90
2018-04-11T02:00:59.660Z,44.60
2018-04-11T02:01:59.662Z,44.40
2018-04-11T02:02:59.666Z,45.10
2018-04-11T02:03:59.676Z,43.90
2018-04-11T02:04:59.666Z,44.40
2018-04-11T02:05:59.679Z,43.10
2018-04-11T02:06:59.676Z,44.70
2018-04-11T02:07:59.689Z,45.90
2018-04-11T02:08:59.696Z,44.00
2018-04-11T02:09:59.702Z,44.00
2018-04-11T02:10:59.703Z,42.40
2018-04-11T02:11:59.695Z,44.00
2018-04-11T02:12:59.720Z,45.00
2018-04-11T02:13:59.707Z,45.10
2018-04-11T02:14:59.699Z,43.00
2018-04-11T02:15:59.702Z,44.30
2018-04-11T02:16:59.719Z,44.70
2018-04-11T02:17:59.719Z,44.40
2018-04-11T02:18:59.720Z,43.20
2018-04-11T02:19:59.715Z,43.90
2018-04-11T02:20:59.735Z,43.40
2018-04-11T02:21:59.735Z,44.60
2018-04-11T02:22:59.723Z,43.60
2018-04-11T02:23:59.729Z,43.60
2018-04-11T02:25:00.426Z,43.70
2018-04-11T02:25:59.731Z,43.80
2018-04-11T02:26:59.751Z,44.20
2018-04-11T02:27:59.746Z,43.40
2018-04-11T02:28:59.742Z,44.30
2018-04-11T02:29:59.745Z,45.20
2018-04-11T02:30:59.806Z,44.50
2018-04-11T02:31:59.774Z,44.20
2018-04-11T02:32:59.764Z,45.60
2018-04-11T02:33:59.757Z,44.10
2018-04-11T02:35:00.426Z,42.50
2018-04-11T02:35:59.768Z,43.30
2018-04-11T02:36:59.788Z,45.10
2018-04-11T02:37:59.765Z,44.00
2018-04-11T02:38:59.768Z,43.40
2018-04-11T02:39:59.788Z,43.00
2018-04-11T02:40:59.785Z,44.10
2018-04-11T02:41:59.784Z,43.40
2018-04-11T02:42:59.789Z,46.40
2018-04-11T02:43:59.794Z,44.30
2018-04-11T02:44:59.787Z,43.60
2018-04-11T02:45:59.799Z,44.90
2018-04-11T02:46:59.824Z,42.90
2018-04-11T02:47:59.816Z,45.20
2018-04-11T02:48:59.814Z,44.50
2018-04-11T02:49:59.801Z,44.60
2018-04-11T02:50:59.800Z,44.40
2018-04-11T02:51:59.807Z,45.80
2018-04-11T02:52:59.834Z,43.60
2018-04-11T02:53:59.907Z,44.50
2018-04-11T02:54:59.813Z,47.30
2018-04-11T02:55:59.811Z,44.80
2018-04-11T02:56:59.827Z,44.60
2018-04-11T02:57:59.840Z,44.50
2018-04-11T02:58:59.834Z,44.90
2018-04-11T02:59:59.830Z,44.90
2018-04-11T03:00:59.830Z,45.80
2018-04-11T03:01:59.839Z,46.90
2018-04-11T03:02:59.871Z,44.10
2018-04-11T03:03:59.846Z,45.10
2018-04-11T03:04:59.845Z,44.70
2018-04-11T03:05:59.839Z,43.50
2018-04-11T03:06:59.849Z,45.10
2018-04-11T03:07:59.852Z,44.00
2018-04-11T03:08:59.852Z,44.80
2018-04-11T03:09:59.858Z,44.50
2018-04-11T03:10:59.861Z,44.80
2018-04-11T03:11:59.872Z,44.90
2018-04-11T03:12:59.870Z,45.50
2018-04-11T03:13:59.875Z,43.70
2018-04-11T03:14:59.905Z,45.60
2018-04-11T03:15:59.873Z,44.10
2018-04-11T03:16:59.884Z,43.70
2018-04-11T03:17:59.882Z,42.10
2018-04-11T03:18:59.902Z,43.50
2018-04-11T03:19:59.879Z,42.00
2018-04-11T03:20:59.927Z,43.40
2018-04-11T03:21:59.898Z,41.50
2018-04-11T03:22:59.887Z,41.80
2018-04-11T03:24:35.512Z,41.30
2018-04-11T03:26:34.497Z,43.70
2018-04-11T03:28:08.495Z,41.70
2018-04-11T03:28:32.010Z,43.30
2018-04-11T03:29:32.011Z,42.40
2018-04-11T03:32:11.714Z,41.80
2018-04-11T03:46:59.789Z,40.60
2018-04-11T03:47:59.761Z,39.80
2018-04-11T03:49:00.252Z,42.30
2018-04-11T03:50:01.291Z,39.20
2018-04-11T03:51:06.756Z,39.30
2018-04-11T03:52:05.246Z,39.70
2018-04-11T03:52:59.796Z,40.50
2018-04-11T03:53:59.761Z,39.90
2018-04-11T03:54:59.780Z,39.50
2018-04-11T03:55:59.776Z,39.00
2018-04-11T03:57:59.773Z,39.50
2018-04-11T03:59:59.776Z,38.60
2018-04-11T04:02:31.935Z,38.50
2018-04-11T04:03:31.898Z,40.20
2018-04-11T04:04:31.907Z,38.60
2018-04-11T04:05:31.921Z,38.20
2018-04-11T04:06:31.898Z,38.30
2018-04-11T04:07:31.905Z,40.90
2018-04-11T04:08:31.896Z,38.50
2018-04-11T04:09:31.905Z,37.60
2018-04-11T04:10:31.910Z,38.70
2018-04-11T04:11:31.912Z,37.40
2018-04-11T04:12:31.921Z,39.70
2018-04-11T04:13:31.919Z,37.90
2018-04-11T04:14:31.921Z,38.60
2018-04-11T04:15:31.923Z,37.20
2018-04-11T04:16:31.926Z,39.90
2018-04-11T04:17:31.927Z,38.40
2018-04-11T04:18:32.883Z,39.60
2018-04-11T04:19:31.931Z,38.40
2018-04-11T04:20:31.932Z,36.70
2018-04-11T04:21:31.944Z,38.40
2018-04-11T04:22:31.943Z,38.70
2018-04-11T04:23:31.930Z,37.50
2018-04-11T04:24:31.944Z,39.60
2018-04-11T04:25:31.950Z,37.00
2018-04-11T04:26:31.953Z,37.20
2018-04-11T04:27:31.941Z,36.50
2018-04-11T04:28:31.952Z,37.70
2018-04-11T04:29:31.960Z,39.20
2018-04-11T04:30:32.005Z,36.50
2018-04-11T04:31:31.959Z,35.20
2018-04-11T04:32:31.962Z,36.70
2018-04-11T04:33:31.965Z,37.20
2018-04-11T04:34:31.969Z,37.20
2018-04-11T04:35:31.978Z,36.90
2018-04-11T04:36:31.970Z,37.40
2018-04-11T04:37:31.968Z,36.30
2018-04-11T04:38:32.896Z,37.50
2018-04-11T04:39:32.885Z,37.70
2018-04-11T04:40:31.975Z,36.70
2018-04-11T04:41:31.991Z,38.50
2018-04-11T04:42:31.983Z,37.60
2018-04-11T04:43:31.998Z,37.20
2018-04-11T04:44:31.993Z,36.40
2018-04-11T04:45:32.000Z,35.70
2018-04-11T04:46:32.007Z,37.50
2018-04-11T04:47:31.996Z,39.00
2018-04-11T04:48:32.006Z,35.10
2018-04-11T04:49:31.997Z,36.80
2018-04-11T04:50:31.997Z,37.10
2018-04-11T04:51:32.021Z,37.10
2018-04-11T04:52:32.015Z,36.20
2018-04-11T04:53:32.000Z,36.70
2018-04-11T04:54:32.022Z,36.60
2018-04-11T04:55:32.016Z,35.90
2018-04-11T04:56:32.006Z,36.60
2018-04-11T04:57:32.025Z,35.90
2018-04-11T04:58:32.025Z,38.60
2018-04-11T04:59:32.011Z,36.70
2018-04-11T05:00:32.033Z,35.50
2018-04-11T05:01:32.025Z,35.90
2018-04-11T05:02:32.028Z,36.10
2018-04-11T05:03:32.032Z,37.80
2018-04-11T05:04:32.035Z,36.60
2018-04-11T05:05:32.046Z,35.50
2018-04-11T05:06:32.894Z,37.00
2018-04-11T05:07:32.039Z,36.00
2018-04-11T05:10:05.132Z,36.10
2018-04-11T05:11:04.633Z,37.60
2018-04-11T05:12:05.135Z,37.20
2018-04-11T05:13:05.139Z,36.30
2018-04-11T05:14:04.153Z,36.90
2018-04-11T05:15:05.146Z,34.90
2018-04-11T05:16:06.141Z,36.40
2018-04-11T05:17:04.219Z,36.90
2018-04-11T05:18:05.136Z,35.10
2018-04-11T05:19:04.161Z,36.60
2018-04-11T05:20:05.163Z,34.80
2018-04-11T05:21:06.139Z,36.10
2018-04-11T05:22:06.134Z,35.80
2018-04-11T05:23:05.632Z,35.40
2018-04-11T05:24:05.148Z,34.70
2018-04-11T05:25:04.183Z,35.90
2018-04-11T05:26:04.719Z,35.80
2018-04-11T05:27:05.153Z,35.10
2018-04-11T05:28:05.143Z,38.40
2018-04-11T05:29:05.145Z,37.20
2018-04-11T05:30:05.136Z,37.40
2018-04-11T05:31:05.631Z,36.40
2018-04-11T05:32:05.136Z,35.20
2018-04-11T05:33:05.632Z,36.30
2018-04-11T05:34:05.138Z,35.90
2018-04-11T05:35:05.636Z,35.80
2018-04-11T05:36:04.239Z,35.00
2018-04-11T05:37:05.153Z,36.30
2018-04-11T05:38:05.141Z,35.10
2018-04-11T05:39:05.138Z,36.60
2018-04-11T05:40:04.282Z,35.30
2018-04-11T05:41:05.214Z,34.80
2018-04-11T05:42:05.140Z,35.80
2018-04-11T05:43:05.136Z,35.00
2018-04-11T05:44:05.137Z,34.70
2018-04-11T05:45:05.160Z,34.20
2018-04-11T05:46:04.220Z,35.70
2018-04-11T05:47:05.149Z,35.40
2018-04-11T05:48:04.216Z,37.00
2018-04-11T05:49:04.248Z,34.60
2018-04-11T05:50:04.228Z,34.30
2018-04-11T05:51:04.251Z,34.50
2018-04-11T05:52:05.144Z,34.20
2018-04-11T05:53:05.143Z,34.80
2018-04-11T05:54:04.238Z,33.90
2018-04-11T05:55:04.246Z,34.20
2018-04-11T05:56:04.247Z,33.50
2018-04-11T05:57:04.246Z,34.40
2018-04-11T05:58:04.264Z,33.90
2018-04-11T05:59:04.250Z,33.60
2018-04-11T06:00:04.260Z,32.80
2018-04-11T06:01:04.304Z,34.30
2018-04-11T06:02:04.271Z,34.90
2018-04-11T06:03:05.173Z,34.00
2018-04-11T06:04:04.273Z,34.90
2018-04-11T06:05:04.263Z,36.40
2018-04-11T06:06:04.261Z,33.00
2018-04-11T06:07:04.279Z,32.60
2018-04-11T06:08:04.274Z,33.70
2018-04-11T06:09:04.263Z,34.10
2018-04-11T06:10:04.291Z,33.60
2018-04-11T06:11:04.282Z,33.60
2018-04-11T06:12:04.300Z,32.60
2018-04-11T06:13:04.318Z,33.90
2018-04-11T06:14:04.820Z,33.30
2018-04-11T06:15:04.311Z,33.50
2018-04-11T06:16:04.306Z,33.10
2018-04-11T06:17:04.359Z,32.60
2018-04-11T06:18:04.296Z,32.10
2018-04-11T06:19:04.309Z,32.10
2018-04-11T06:20:04.310Z,32.10
2018-04-11T06:21:04.316Z,31.00
2018-04-11T06:22:04.312Z,32.00
2018-04-11T06:23:04.337Z,31.00
2018-04-11T06:24:05.148Z,30.20
2018-04-11T06:25:04.309Z,30.80
2018-04-11T06:26:04.419Z,31.80
2018-04-11T06:27:04.334Z,31.10
2018-04-11T06:28:04.500Z,31.30
2018-04-11T06:29:04.356Z,32.00
2018-04-11T06:30:04.344Z,29.20
2018-04-11T06:31:04.359Z,30.80
2018-04-11T06:32:04.360Z,29.40
2018-04-11T06:33:04.340Z,29.90
2018-04-11T06:34:04.372Z,30.70
2018-04-11T06:35:04.364Z,30.00
2018-04-11T06:36:04.380Z,30.10
2018-04-11T06:37:04.396Z,29.40
2018-04-11T06:38:04.416Z,29.30
2018-04-11T06:39:04.388Z,27.90
2018-04-11T06:40:04.388Z,29.70
2018-04-11T06:41:04.434Z,28.50
2018-04-11T06:42:04.432Z,28.50
2018-04-11T06:43:04.386Z,29.70
2018-04-11T06:44:04.398Z,29.00
2018-04-11T06:45:04.424Z,28.20
2018-04-11T06:46:04.462Z,29.40
2018-04-11T06:47:05.250Z,29.10
2018-04-11T06:48:04.461Z,30.50
2018-04-11T06:49:06.867Z,30.40
2018-04-11T06:50:04.466Z,29.40
2018-04-11T06:51:04.504Z,29.30
2018-04-11T06:52:04.598Z,29.60
2018-04-11T06:53:04.421Z,30.10
2018-04-11T06:54:04.477Z,29.50
2018-04-11T06:55:04.437Z,28.40
2018-04-11T06:56:04.460Z,29.40
2018-04-11T06:57:04.459Z,29.80
2018-04-11T06:58:04.452Z,29.00
2018-04-11T06:59:04.462Z,28.90
2018-04-11T07:00:04.479Z,30.40
2018-04-11T07:01:04.592Z,27.80
2018-04-11T07:02:04.489Z,29.90
2018-04-11T07:03:04.497Z,29.00
2018-04-11T07:04:04.560Z,28.30
2018-04-11T07:05:04.508Z,28.90
2018-04-11T07:06:04.511Z,30.30
2018-04-11T07:07:04.537Z,28.30
2018-04-11T07:08:04.511Z,29.00
2018-04-11T07:09:04.504Z,28.60
2018-04-11T07:10:04.523Z,28.40
2018-04-11T07:11:04.544Z,29.20
2018-04-11T07:12:05.257Z,29.30
2018-04-11T07:13:04.538Z,28.30
2018-04-11T07:14:05.261Z,29.30
2018-04-11T07:15:04.563Z,29.40
2018-04-11T07:16:04.549Z,27.90
2018-04-11T07:17:04.541Z,28.40
2018-04-11T07:18:04.558Z,27.30
2018-04-11T07:19:04.639Z,27.70
2018-04-11T07:20:04.621Z,28.10
2018-04-11T07:21:04.595Z,27.90
2018-04-11T07:22:04.598Z,26.80
2018-04-11T07:23:04.583Z,27.50
2018-04-11T07:24:04.594Z,27.50
2018-04-11T07:25:04.604Z,28.50
2018-04-11T07:26:04.598Z,27.70
2018-04-11T07:27:04.832Z,28.20
2018-04-11T07:28:04.647Z,28.40
2018-04-11T07:29:04.637Z,29.00
2018-04-11T07:30:04.687Z,28.20
2018-04-11T07:31:04.658Z,27.30
2018-04-11T07:32:04.666Z,27.20
2018-04-11T07:33:04.699Z,29.30
2018-04-11T07:34:05.331Z,27.00
2018-04-11T07:37:00.989Z,27.70
2018-04-11T07:37:59.995Z,27.00
2018-04-11T07:40:31.633Z,26.90
2018-04-11T07:41:31.614Z,28.60
2018-04-11T07:42:31.616Z,28.00
2018-04-11T07:43:31.637Z,27.70
2018-04-11T07:44:31.816Z,28.70
2018-04-11T07:45:31.649Z,27.10
2018-04-11T07:46:31.659Z,26.20
2018-04-11T07:47:32.156Z,27.90
2018-04-11T07:48:31.637Z,26.70
2018-04-11T07:49:31.638Z,27.00
2018-04-11T07:50:31.640Z,27.40
2018-04-11T07:51:31.685Z,26.10
2018-04-11T07:52:31.709Z,26.30
2018-04-11T07:53:31.762Z,27.50
2018-04-11T07:54:32.839Z,26.90
2018-04-11T07:55:31.685Z,26.40
2018-04-11T07:56:31.725Z,26.30
2018-04-11T07:57:31.713Z,25.50
2018-04-11T07:58:31.762Z,26.30
2018-04-11T07:59:31.778Z,26.40
2018-04-11T08:00:31.768Z,26.00
2018-04-11T08:01:31.764Z,25.90
2018-04-11T08:02:31.767Z,25.10
2018-04-11T08:03:31.817Z,26.00
2018-04-11T08:04:31.792Z,26.40
2018-04-11T08:05:31.774Z,24.60
2018-04-11T08:06:31.804Z,24.90
2018-04-11T08:07:31.807Z,25.10
2018-04-11T08:08:31.837Z,25.20
2018-04-11T08:09:31.838Z,26.00
2018-04-11T08:10:32.568Z,24.90
2018-04-11T08:11:31.889Z,25.90
2018-04-11T08:12:31.842Z,26.10
2018-04-11T08:13:31.851Z,24.80
2018-04-11T08:14:31.881Z,26.60
2018-04-11T08:15:31.958Z,25.50
2018-04-11T08:16:31.905Z,25.50
2018-04-11T08:17:31.895Z,25.30
2018-04-11T08:18:31.895Z,24.90
2018-04-11T08:19:31.994Z,24.90
2018-04-11T08:20:31.923Z,25.70
2018-04-11T08:21:31.942Z,24.50
2018-04-11T08:22:31.965Z,23.60
2018-04-11T08:23:32.009Z,23.90
2018-04-11T08:24:32.485Z,27.50
2018-04-11T08:25:32.585Z,24.50
2018-04-11T08:26:32.532Z,23.90
2018-04-11T08:27:34.321Z,24.50
2018-04-11T08:28:32.136Z,24.90
2018-04-11T08:29:32.014Z,25.70
2018-04-11T08:30:32.080Z,24.60
2018-04-11T08:31:32.574Z,24.40
2018-04-11T08:32:32.064Z,23.30
2018-04-11T08:33:32.078Z,23.70
2018-04-11T08:34:32.070Z,22.80
2018-04-11T08:35:32.095Z,23.30
2018-04-11T08:36:32.116Z,24.20
2018-04-11T08:37:32.100Z,22.80
2018-04-11T08:38:32.114Z,23.30
2018-04-11T08:39:32.140Z,22.60
2018-04-11T08:40:32.378Z,22.90
2018-04-11T08:41:32.218Z,22.40
2018-04-11T08:42:32.754Z,23.00
2018-04-11T08:43:32.201Z,22.70
2018-04-11T08:44:32.257Z,23.60
2018-04-11T08:45:32.244Z,22.10
2018-04-11T08:46:32.208Z,22.60
2018-04-11T08:47:32.318Z,22.40
2018-04-11T08:48:35.483Z,22.90
2018-04-11T08:49:32.533Z,23.00
2018-04-11T08:50:32.613Z,23.30
2018-04-11T08:51:32.385Z,22.20
2018-04-11T08:52:32.405Z,23.10
2018-04-11T08:53:32.373Z,21.60
2018-04-11T08:54:32.346Z,22.40
2018-04-11T08:55:32.489Z,23.20
2018-04-11T08:56:32.369Z,23.40
2018-04-11T08:57:33.106Z,22.90
2018-04-11T08:58:32.502Z,23.50
2018-04-11T08:59:32.619Z,23.30
2018-04-11T09:00:32.601Z,23.10
2018-04-11T09:01:32.472Z,22.80
2018-04-11T09:02:32.537Z,23.20
2018-04-11T09:03:32.537Z,22.90
2018-04-11T09:04:32.702Z,23.70
2018-04-11T09:05:32.627Z,22.60
2018-04-11T09:06:32.537Z,22.40
2018-04-11T09:07:32.683Z,22.60
2018-04-11T09:08:32.668Z,24.00
2018-04-11T09:09:32.811Z,22.60
2018-04-11T09:10:33.117Z,23.30
2018-04-11T09:11:32.784Z,23.30
2018-04-11T09:12:33.110Z,22.80
2018-04-11T09:13:32.643Z,23.80
2018-04-11T09:14:32.668Z,22.80
2018-04-11T09:15:32.728Z,22.30
2018-04-11T09:16:32.838Z,23.40
2018-04-11T09:17:32.799Z,23.30
2018-04-11T09:18:33.466Z,23.40
2018-04-11T09:19:32.763Z,23.10
2018-04-11T09:20:32.836Z,22.80
2018-04-11T09:21:32.702Z,22.10
2018-04-11T09:22:32.821Z,22.10
2018-04-11T09:23:32.965Z,22.50
2018-04-11T09:24:32.854Z,21.70
2018-04-11T09:25:32.823Z,23.00
2018-04-11T09:26:32.902Z,23.70
2018-04-11T09:27:33.619Z,23.40
2018-04-11T09:28:32.789Z,21.80
2018-04-11T09:29:33.622Z,23.60
2018-04-11T09:30:32.882Z,22.70
2018-04-11T09:31:32.822Z,22.40
2018-04-11T09:32:32.994Z,22.80
2018-04-11T09:33:32.976Z,23.30
2018-04-11T09:34:33.608Z,23.40
2018-04-11T09:35:33.525Z,22.30
2018-04-11T09:36:33.127Z,22.00
2018-04-11T09:37:33.055Z,23.30
2018-04-11T09:38:32.977Z,22.10
2018-04-11T09:39:33.019Z,23.30
2018-04-11T09:40:33.335Z,23.80
2018-04-11T09:41:33.149Z,22.40
2018-04-11T09:42:33.624Z,22.90
2018-04-11T09:43:33.158Z,22.00
2018-04-11T09:45:33.123Z,22.40
2018-04-11T09:46:33.187Z,23.20
2018-04-11T09:47:33.152Z,22.20
2018-04-11T09:48:33.171Z,23.20
2018-04-11T09:49:33.219Z,23.50
2018-04-11T09:50:33.339Z,23.50
2018-04-11T09:51:33.185Z,23.20
2018-04-11T09:52:33.245Z,22.50
2018-04-11T09:53:33.247Z,23.70
2018-04-11T09:54:33.222Z,22.50
2018-04-11T09:55:33.923Z,22.70
2018-04-11T09:56:33.433Z,22.30
2018-04-11T09:57:34.201Z,23.50
2018-04-11T09:58:33.804Z,23.70
2018-04-11T09:59:33.391Z,22.90
2018-04-11T10:00:33.309Z,24.50
2018-04-11T10:01:33.344Z,23.50
2018-04-11T10:02:33.505Z,22.30
2018-04-11T10:03:33.343Z,23.90
2018-04-11T10:04:33.365Z,22.90
2018-04-11T10:05:33.389Z,23.00
2018-04-11T10:06:34.142Z,23.10
2018-04-11T10:07:35.147Z,23.50
2018-04-11T10:08:33.454Z,24.50
2018-04-11T10:09:33.487Z,23.80
2018-04-11T10:10:33.471Z,22.90
2018-04-11T10:11:33.595Z,22.40
2018-04-11T10:12:33.524Z,23.00
2018-04-11T10:13:33.505Z,23.50
2018-04-11T10:14:33.600Z,23.80
2018-04-11T10:15:33.556Z,23.30
2018-04-11T10:16:33.563Z,23.50
2018-04-11T10:17:33.668Z,23.20
2018-04-11T10:18:33.615Z,24.40
2018-04-11T10:19:34.150Z,23.30
2018-04-11T10:20:33.606Z,23.00
2018-04-11T10:21:33.709Z,22.80
2018-04-11T10:22:33.667Z,21.60
2018-04-11T10:23:33.709Z,22.80
2018-04-11T10:24:33.680Z,22.00
2018-04-11T10:25:33.690Z,23.00
2018-04-11T10:26:33.751Z,22.70
2018-04-11T10:27:33.813Z,21.90
2018-04-11T10:28:33.826Z,23.00
2018-04-11T10:29:34.672Z,22.70
2018-04-11T10:30:33.817Z,23.60
2018-04-11T10:31:34.669Z,22.70
2018-04-11T10:32:33.919Z,24.60
2018-04-11T10:33:33.894Z,24.00
2018-04-11T10:34:33.875Z,25.00
2018-04-11T10:35:33.953Z,23.60
2018-04-11T10:36:33.984Z,25.00
2018-04-11T10:37:33.939Z,24.50
2018-04-11T10:38:33.940Z,23.80
2018-04-11T10:39:34.027Z,21.90
2018-04-11T10:40:33.986Z,23.60
2018-04-11T10:41:34.067Z,24.30
2018-04-11T10:42:33.973Z,24.70
2018-04-11T10:43:34.102Z,24.20
2018-04-11T10:44:34.208Z,24.80
2018-04-11T10:45:34.049Z,25.60
2018-04-11T10:46:34.668Z,25.10
2018-04-11T10:47:34.082Z,25.80
2018-04-11T10:48:34.076Z,25.30
2018-04-11T10:49:34.056Z,26.20
2018-04-11T10:50:34.178Z,25.70
2018-04-11T10:51:34.129Z,26.10
2018-04-11T10:52:34.177Z,26.10
2018-04-11T10:53:34.254Z,26.80
2018-04-11T10:54:34.215Z,26.30
2018-04-11T10:57:46.613Z,24.80
